createdAt,value
2023-05-25T00:01:01.149Z,22.37
2023-05-25T00:03:30.125Z,21.97
2023-05-25T00:05:57.386Z,19.83
2023-05-25T00:08:24.463Z,22.60
2023-05-25T00:10:51.530Z,27.60
2023-05-25T00:13:19.955Z,28.83
2023-05-25T00:15:47.136Z,18.83
2023-05-25T00:18:14.245Z,23.40
2023-05-25T00:20:41.436Z,23.63
2023-05-25T00:23:08.667Z,18.90
2023-05-25T00:25:35.741Z,16.13
2023-05-25T00:28:02.825Z,20.17
2023-05-25T00:30:31.290Z,17.43
2023-05-25T00:32:59.867Z,22.50
2023-05-25T00:35:27.003Z,21.03
2023-05-25T00:37:54.124Z,19.70
2023-05-25T00:40:21.356Z,16.80
2023-05-25T00:42:48.528Z,29.47
2023-05-25T00:45:15.599Z,17.43
2023-05-25T00:47:44.906Z,22.00
2023-05-25T00:50:15.438Z,19.60
2023-05-25T00:52:42.616Z,21.37
2023-05-25T00:55:11.489Z,20.03
2023-05-25T00:57:40.771Z,18.57
2023-05-25T01:00:08.825Z,22.50
2023-05-25T01:02:36.189Z,22.47
2023-05-25T01:05:06.912Z,25.57
2023-05-25T01:07:35.237Z,22.40
2023-05-25T01:10:03.143Z,27.33
2023-05-25T01:12:30.734Z,25.60
2023-05-25T01:14:58.583Z,24.03
2023-05-25T01:17:26.458Z,20.43
2023-05-25T01:20:08.993Z,27.30
2023-05-25T01:22:41.318Z,17.00
2023-05-25T01:25:12.260Z,20.50
2023-05-25T01:27:41.265Z,32.37
2023-05-25T01:30:10.310Z,18.90
2023-05-25T01:32:38.078Z,25.57
2023-05-25T01:35:05.679Z,30.43
2023-05-25T01:37:32.929Z,21.20
2023-05-25T01:40:01.336Z,23.70
2023-05-25T01:42:29.904Z,23.27
2023-05-25T01:44:57.067Z,36.53
2023-05-25T01:47:26.696Z,21.60
2023-05-25T01:49:59.475Z,16.37
2023-05-25T01:52:27.982Z,34.73
2023-05-25T01:54:57.945Z,25.77
2023-05-25T01:57:27.046Z,26.70
2023-05-25T01:59:54.636Z,24.93
2023-05-25T02:02:21.976Z,28.50
2023-05-25T02:04:49.906Z,28.73
2023-05-25T02:07:17.231Z,19.33
2023-05-25T02:09:44.967Z,24.00
2023-05-25T02:12:12.270Z,26.20
2023-05-25T02:14:40.824Z,22.80
2023-05-25T02:17:08.628Z,28.60
2023-05-25T02:19:36.357Z,26.23
2023-05-25T02:22:03.612Z,24.13
2023-05-25T02:24:30.715Z,18.10
2023-05-25T02:26:57.913Z,23.27
2023-05-25T02:29:25.102Z,22.20
2023-05-25T02:31:53.669Z,21.53
2023-05-25T02:34:21.483Z,27.23
2023-05-25T02:36:48.636Z,21.37
2023-05-25T02:39:15.775Z,24.73
2023-05-25T02:41:43.464Z,23.47
2023-05-25T02:44:10.636Z,21.60
2023-05-25T02:46:38.004Z,25.03
2023-05-25T02:49:06.635Z,21.17
2023-05-25T02:51:35.000Z,23.90
2023-05-25T02:54:02.196Z,25.53
2023-05-25T02:56:29.430Z,25.97
2023-05-25T02:58:58.105Z,24.20
2023-05-25T03:01:32.570Z,27.97
2023-05-25T03:04:01.074Z,22.37
2023-05-25T03:06:33.711Z,23.43
2023-05-25T03:09:09.493Z,27.00
2023-05-25T03:11:38.264Z,30.03
2023-05-25T03:14:05.705Z,20.17
2023-05-25T03:16:34.237Z,18.90
2023-05-25T03:19:01.520Z,28.03
2023-05-25T03:21:29.330Z,25.30
2023-05-25T03:23:57.886Z,30.80
2023-05-25T03:26:25.084Z,27.20
2023-05-25T03:28:53.549Z,27.57
2023-05-25T03:31:20.744Z,22.90
2023-05-25T03:33:48.378Z,24.70
2023-05-25T03:36:16.166Z,26.50
2023-05-25T03:38:44.179Z,26.97
2023-05-25T03:41:12.776Z,30.80
2023-05-25T03:43:39.889Z,20.97
2023-05-25T03:46:08.505Z,25.13
2023-05-25T03:48:35.921Z,28.47
2023-05-25T03:51:04.832Z,22.50
2023-05-25T03:53:31.965Z,26.63
2023-05-25T03:55:59.209Z,20.67
2023-05-25T03:58:27.716Z,35.40
2023-05-25T04:00:54.924Z,22.73
2023-05-25T04:03:22.598Z,35.43
2023-05-25T04:05:50.162Z,26.13
2023-05-25T04:08:17.707Z,23.97
2023-05-25T04:10:45.183Z,30.37
2023-05-25T04:13:12.620Z,25.70
2023-05-25T04:15:41.595Z,22.97
2023-05-25T04:18:13.342Z,30.33
2023-05-25T04:20:41.023Z,27.83
2023-05-25T04:23:11.172Z,30.80
2023-05-25T04:25:39.545Z,24.60
2023-05-25T04:28:06.773Z,29.47
2023-05-25T04:30:54.046Z,36.10
2023-05-25T04:33:31.864Z,37.67
2023-05-25T04:36:02.338Z,33.77
2023-05-25T04:38:29.547Z,34.97
2023-05-25T04:40:57.720Z,30.20
2023-05-25T04:43:25.177Z,36.10
2023-05-25T04:45:54.607Z,34.20
2023-05-25T04:48:22.447Z,41.53
2023-05-25T04:50:49.614Z,35.30
2023-05-25T04:53:16.888Z,28.30
2023-05-25T04:55:44.397Z,31.50
2023-05-25T04:58:13.998Z,34.87
2023-05-25T05:00:42.260Z,39.73
2023-05-25T05:03:11.724Z,28.23
2023-05-25T05:05:38.945Z,30.43
2023-05-25T05:08:09.748Z,36.63
2023-05-25T05:10:37.015Z,42.63
2023-05-25T05:13:04.775Z,31.67
2023-05-25T05:15:33.081Z,47.87
2023-05-25T05:18:00.323Z,35.30
2023-05-25T05:20:29.044Z,32.17
2023-05-25T05:22:56.247Z,35.40
2023-05-25T05:25:23.812Z,31.90
2023-05-25T05:27:50.958Z,40.43
2023-05-25T05:30:24.418Z,38.37
2023-05-25T05:32:51.746Z,35.37
2023-05-25T05:35:21.032Z,25.13
2023-05-25T05:37:50.079Z,31.23
2023-05-25T05:40:17.293Z,27.50
2023-05-25T05:42:44.496Z,26.43
2023-05-25T05:45:11.983Z,25.57
2023-05-25T05:47:39.241Z,33.20
2023-05-25T05:50:08.008Z,32.97
2023-05-25T05:52:36.380Z,28.37
2023-05-25T05:55:05.989Z,21.97
2023-05-25T05:57:33.652Z,26.57
2023-05-25T06:00:01.474Z,32.90
2023-05-25T06:02:28.968Z,26.63
2023-05-25T06:04:56.939Z,27.07
2023-05-25T06:07:24.564Z,26.90
2023-05-25T06:09:51.753Z,34.50
2023-05-25T06:12:20.558Z,31.60
2023-05-25T06:14:47.668Z,28.27
2023-05-25T06:17:14.824Z,28.50
2023-05-25T06:19:42.561Z,31.10
2023-05-25T06:22:09.671Z,24.40
2023-05-25T06:24:36.935Z,20.90
2023-05-25T06:27:04.277Z,25.33
2023-05-25T06:29:32.846Z,27.70
2023-05-25T06:32:00.154Z,21.40
2023-05-25T06:34:27.710Z,23.50
2023-05-25T06:36:54.798Z,19.73
2023-05-25T06:39:22.419Z,22.37
2023-05-25T06:41:50.008Z,20.67
2023-05-25T06:44:26.878Z,15.80
2023-05-25T06:46:55.355Z,22.53
2023-05-25T06:49:22.444Z,27.73
2023-05-25T06:51:49.678Z,21.17
2023-05-25T06:54:16.836Z,25.60
2023-05-25T06:56:43.972Z,19.77
2023-05-25T06:59:11.059Z,23.77
2023-05-25T07:01:38.261Z,20.17
2023-05-25T07:04:06.771Z,21.77
2023-05-25T07:06:33.944Z,25.60
2023-05-25T07:09:01.044Z,26.17
2023-05-25T07:11:28.153Z,23.07
2023-05-25T07:13:55.349Z,21.90
2023-05-25T07:16:22.513Z,29.40
2023-05-25T07:18:49.691Z,24.50
2023-05-25T07:21:18.253Z,21.77
2023-05-25T07:23:45.359Z,28.40
2023-05-25T07:26:12.479Z,19.33
2023-05-25T07:28:39.620Z,25.00
2023-05-25T07:31:06.871Z,26.57
2023-05-25T07:33:34.025Z,22.63
2023-05-25T07:36:01.150Z,25.67
2023-05-25T07:38:29.752Z,24.63
2023-05-25T07:40:56.933Z,29.37
2023-05-25T07:43:24.177Z,18.10
2023-05-25T07:45:51.289Z,30.47
2023-05-25T07:48:18.475Z,16.67
2023-05-25T07:50:45.766Z,28.53
2023-05-25T07:53:12.928Z,19.43
2023-05-25T07:55:41.376Z,21.40
2023-05-25T07:58:08.710Z,20.37
2023-05-25T08:00:35.858Z,20.87
2023-05-25T08:03:03.104Z,20.07
2023-05-25T08:05:30.441Z,22.10
2023-05-25T08:07:57.550Z,19.90
2023-05-25T08:10:24.785Z,22.27
2023-05-25T08:12:53.249Z,21.17
2023-05-25T08:15:20.345Z,17.57
2023-05-25T08:17:47.509Z,20.73
2023-05-25T08:20:14.884Z,22.70
2023-05-25T08:22:41.963Z,24.87
2023-05-25T08:25:09.273Z,21.97
2023-05-25T08:27:36.713Z,20.80
2023-05-25T08:30:06.055Z,17.77
2023-05-25T08:32:33.543Z,22.40
2023-05-25T08:35:00.720Z,20.87
2023-05-25T08:37:27.861Z,17.33
2023-05-25T08:39:55.041Z,17.43
2023-05-25T08:42:22.210Z,23.97
2023-05-25T08:44:49.320Z,20.60
2023-05-25T08:47:17.825Z,20.60
2023-05-25T08:49:45.424Z,18.83
2023-05-25T08:52:15.210Z,19.90
2023-05-25T08:54:44.396Z,14.07
2023-05-25T08:57:14.048Z,20.40
2023-05-25T08:59:45.064Z,18.30
2023-05-25T09:02:17.786Z,17.57
2023-05-25T09:04:46.415Z,19.53
2023-05-25T09:07:13.983Z,13.67
2023-05-25T09:09:41.219Z,17.30
2023-05-25T09:12:09.032Z,12.13
2023-05-25T09:14:36.316Z,21.37
2023-05-25T09:17:03.644Z,20.70
2023-05-25T09:19:30.830Z,14.23
2023-05-25T09:22:14.005Z,16.60
2023-05-25T09:24:43.633Z,11.33
2023-05-25T09:27:12.070Z,14.67
2023-05-25T09:29:39.383Z,9.93
2023-05-25T09:32:06.890Z,14.23
2023-05-25T09:34:34.322Z,14.77
2023-05-25T09:37:03.933Z,14.10
2023-05-25T09:39:31.334Z,17.53
2023-05-25T09:41:58.537Z,15.83
2023-05-25T09:44:25.735Z,9.37
2023-05-25T09:46:53.006Z,14.63
2023-05-25T09:49:20.292Z,13.27
2023-05-25T09:51:48.298Z,12.40
2023-05-25T09:54:16.884Z,10.33
2023-05-25T09:56:44.314Z,22.77
2023-05-25T09:59:12.326Z,10.90
2023-05-25T10:01:41.773Z,8.10
2023-05-25T10:04:09.075Z,8.73
2023-05-25T10:06:36.234Z,11.27
2023-05-25T10:09:04.251Z,11.73
2023-05-25T10:11:34.525Z,15.60
2023-05-25T10:14:04.773Z,14.73
2023-05-25T10:16:33.721Z,12.30
2023-05-25T10:19:02.576Z,10.40
2023-05-25T10:21:30.988Z,7.90
2023-05-25T10:24:00.972Z,10.50
2023-05-25T10:26:28.597Z,12.03
2023-05-25T10:28:57.492Z,12.27
2023-05-25T10:31:24.811Z,9.30
2023-05-25T10:33:52.718Z,6.00
2023-05-25T10:36:20.932Z,11.50
2023-05-25T10:38:48.232Z,7.83
2023-05-25T10:41:15.984Z,5.13
2023-05-25T10:43:43.694Z,8.43
2023-05-25T10:46:12.212Z,10.37
2023-05-25T10:48:40.077Z,5.68
2023-05-25T10:51:09.376Z,9.70
2023-05-25T10:53:39.408Z,7.32
2023-05-25T10:56:07.196Z,8.20
2023-05-25T10:58:34.559Z,6.10
2023-05-25T11:01:02.749Z,5.78
2023-05-25T11:03:50.853Z,6.63
2023-05-25T11:06:18.425Z,5.65
2023-05-25T11:08:52.557Z,7.47
2023-05-25T11:11:20.208Z,9.38
2023-05-25T11:13:48.173Z,7.65
2023-05-25T11:16:15.917Z,12.07
2023-05-25T11:18:43.075Z,8.50
2023-05-25T11:21:21.601Z,6.80
2023-05-25T11:23:56.102Z,6.30
2023-05-25T11:26:23.703Z,5.03
2023-05-25T11:28:51.499Z,8.10
2023-05-25T11:31:20.341Z,5.50
2023-05-25T11:33:47.561Z,9.55
2023-05-25T11:36:14.732Z,6.82
2023-05-25T11:38:47.304Z,5.68
2023-05-25T11:41:20.479Z,5.05
2023-05-25T11:43:48.269Z,5.82
2023-05-25T11:46:15.893Z,8.80
2023-05-25T11:48:46.789Z,4.53
2023-05-25T11:51:14.000Z,4.70
2023-05-25T11:53:45.835Z,7.00
2023-05-25T11:58:41.377Z,8.23
2023-05-25T12:01:18.514Z,6.57
2023-05-25T12:03:45.865Z,5.97
2023-05-25T12:06:25.970Z,6.45
2023-05-25T12:08:54.580Z,6.43
2023-05-25T12:11:28.073Z,7.25
2023-05-25T12:13:55.756Z,7.43
2023-05-25T12:16:23.189Z,6.35
2023-05-25T12:18:50.935Z,7.18
2023-05-25T12:21:18.291Z,5.80
2023-05-25T12:23:45.669Z,6.00
2023-05-25T12:26:14.780Z,5.97
2023-05-25T12:28:41.902Z,9.27
2023-05-25T12:31:22.041Z,7.78
2023-05-25T12:34:02.647Z,8.65
2023-05-25T12:36:46.705Z,7.90
2023-05-25T12:39:14.601Z,7.90
2023-05-25T12:41:51.289Z,10.35
2023-05-25T12:44:24.675Z,11.02
2023-05-25T12:46:52.843Z,9.40
2023-05-25T12:49:27.081Z,7.82
2023-05-25T12:51:54.340Z,11.85
2023-05-25T12:54:48.449Z,6.85
2023-05-25T12:57:17.854Z,7.45
2023-05-25T12:59:45.569Z,6.63
2023-05-25T13:02:13.116Z,7.82
2023-05-25T13:04:41.375Z,9.43
2023-05-25T13:07:09.212Z,7.57
2023-05-25T13:09:36.627Z,6.28
2023-05-25T13:12:03.993Z,9.55
2023-05-25T13:14:32.454Z,8.98
2023-05-25T13:16:59.753Z,7.43
2023-05-25T13:19:26.888Z,8.05
2023-05-25T13:21:54.336Z,7.90
2023-05-25T13:24:21.443Z,7.72
2023-05-25T13:26:50.814Z,9.48
2023-05-25T13:29:18.681Z,9.85
2023-05-25T13:31:47.219Z,9.43
2023-05-25T13:34:14.425Z,8.90
2023-05-25T13:36:41.617Z,6.07
2023-05-25T13:39:08.697Z,11.60
2023-05-25T13:41:35.931Z,10.45
2023-05-25T13:44:03.080Z,9.57
2023-05-25T13:46:35.193Z,7.45
2023-05-25T13:49:04.216Z,9.45
2023-05-25T13:51:31.380Z,6.57
2023-05-25T13:53:58.540Z,9.65
2023-05-25T13:56:25.699Z,8.70
2023-05-25T13:58:52.791Z,8.02
2023-05-25T14:01:20.049Z,6.80
2023-05-25T14:03:47.472Z,6.32
2023-05-25T14:06:16.184Z,6.03
2023-05-25T14:08:43.290Z,9.48
2023-05-25T14:11:10.442Z,7.07
2023-05-25T14:13:37.632Z,4.90
2023-05-25T14:16:04.879Z,5.82
2023-05-25T14:18:32.137Z,6.00
2023-05-25T14:20:59.632Z,7.75
2023-05-25T14:23:28.170Z,7.00
2023-05-25T14:25:55.293Z,8.38
2023-05-25T14:28:22.418Z,4.15
2023-05-25T14:30:49.658Z,9.55
2023-05-25T14:33:16.837Z,8.52
2023-05-25T14:35:44.115Z,6.35
2023-05-25T14:38:11.404Z,5.57
2023-05-25T14:40:39.877Z,4.63
2023-05-25T14:43:07.040Z,8.18
2023-05-25T14:45:34.161Z,6.65
2023-05-25T14:48:15.169Z,6.32
2023-05-25T14:50:42.957Z,6.82
2023-05-25T14:53:10.080Z,12.13
2023-05-25T14:55:37.241Z,12.38
2023-05-25T14:58:05.724Z,9.52
2023-05-25T15:00:32.861Z,8.75
2023-05-25T15:03:00.235Z,4.68
2023-05-25T15:05:27.449Z,5.43
2023-05-25T15:07:54.530Z,7.97
2023-05-25T15:10:21.637Z,5.70
2023-05-25T15:12:48.732Z,7.00
2023-05-25T15:15:17.217Z,8.07
2023-05-25T15:17:44.374Z,8.70
2023-05-25T15:20:11.990Z,4.82
2023-05-25T15:22:39.141Z,5.75
2023-05-25T15:25:06.361Z,9.45
2023-05-25T15:27:33.524Z,8.63
2023-05-25T15:30:00.703Z,8.35
2023-05-25T15:32:29.154Z,7.65
2023-05-25T15:34:56.292Z,6.97
2023-05-25T15:37:23.407Z,6.13
2023-05-25T15:39:50.603Z,9.30
2023-05-25T15:42:17.713Z,5.28
2023-05-25T15:44:44.822Z,7.47
2023-05-25T15:47:11.930Z,7.57
2023-05-25T15:49:40.388Z,6.40
2023-05-25T15:52:07.638Z,5.53
2023-05-25T15:54:34.839Z,10.43
2023-05-25T15:57:01.978Z,7.03
2023-05-25T15:59:29.192Z,10.40
2023-05-25T16:01:56.402Z,7.35
2023-05-25T16:04:23.714Z,7.15
2023-05-25T16:06:52.203Z,24.98
2023-05-25T16:09:19.312Z,5.55
2023-05-25T16:11:46.466Z,6.55
2023-05-25T16:14:13.633Z,8.88
2023-05-25T16:16:40.834Z,6.70
2023-05-25T16:19:07.974Z,6.55
2023-05-25T16:21:37.707Z,10.45
2023-05-25T16:24:06.718Z,9.00
2023-05-25T16:26:33.913Z,6.68
2023-05-25T16:29:01.172Z,10.80
2023-05-25T16:31:28.436Z,8.93
2023-05-25T16:33:55.620Z,8.05
2023-05-25T16:36:23.487Z,8.00
2023-05-25T16:38:51.889Z,5.50
2023-05-25T16:41:20.382Z,5.82
2023-05-25T16:43:47.544Z,5.90
2023-05-25T16:46:14.748Z,6.60
2023-05-25T16:48:41.958Z,10.02
2023-05-25T16:51:09.113Z,6.80
2023-05-25T16:53:36.317Z,7.88
2023-05-25T16:56:03.407Z,10.73
2023-05-25T16:58:31.902Z,8.20
2023-05-25T17:00:59.168Z,5.97
2023-05-25T17:03:26.533Z,9.02
2023-05-25T17:05:54.883Z,9.38
2023-05-25T17:08:22.037Z,5.45
2023-05-25T17:10:49.556Z,10.75
2023-05-25T17:13:16.675Z,8.50
2023-05-25T17:15:45.343Z,7.68
2023-05-25T17:18:12.700Z,7.18
2023-05-25T17:20:39.989Z,7.25
2023-05-25T17:23:07.537Z,6.30
2023-05-25T17:25:34.779Z,9.13
2023-05-25T17:28:01.990Z,6.03
2023-05-25T17:30:29.195Z,7.53
2023-05-25T17:32:57.734Z,7.70
2023-05-25T17:35:25.003Z,9.15
2023-05-25T17:37:52.384Z,12.10
2023-05-25T17:40:19.639Z,8.27
2023-05-25T17:42:46.896Z,7.70
2023-05-25T17:45:14.144Z,8.33
2023-05-25T17:47:41.440Z,7.50
2023-05-25T17:50:10.397Z,6.07
2023-05-25T17:52:37.575Z,8.10
2023-05-25T17:55:05.292Z,8.10
2023-05-25T17:57:32.364Z,7.70
2023-05-25T17:59:59.500Z,13.17
2023-05-25T18:02:26.876Z,5.23
2023-05-25T18:04:54.287Z,7.07
2023-05-25T18:07:22.788Z,7.07
2023-05-25T18:09:49.942Z,10.87
2023-05-25T18:12:17.130Z,10.20
2023-05-25T18:14:44.245Z,6.07
2023-05-25T18:17:11.482Z,10.43
2023-05-25T18:19:38.683Z,6.47
2023-05-25T18:22:06.080Z,8.87
2023-05-25T18:24:34.545Z,10.97
2023-05-25T18:27:01.649Z,11.47
2023-05-25T18:29:28.760Z,8.87
2023-05-25T18:31:55.987Z,10.37
2023-05-25T18:34:23.146Z,12.73
2023-05-25T18:36:50.290Z,9.20
2023-05-25T18:39:17.468Z,8.00
2023-05-25T18:41:45.943Z,8.67
2023-05-25T18:44:13.075Z,7.70
2023-05-25T18:46:40.271Z,13.60
2023-05-25T18:49:07.478Z,10.27
2023-05-25T18:51:34.612Z,10.23
2023-05-25T18:54:01.719Z,8.33
2023-05-25T18:56:28.846Z,10.20
2023-05-25T18:58:57.505Z,11.80
2023-05-25T19:01:24.815Z,14.63
2023-05-25T19:03:52.196Z,10.13
2023-05-25T19:06:19.527Z,7.90
2023-05-25T19:08:46.636Z,7.97
2023-05-25T19:11:13.910Z,9.90
2023-05-25T19:13:41.078Z,10.90
2023-05-25T19:16:09.560Z,13.00
2023-05-25T19:18:36.724Z,13.03
2023-05-25T19:21:03.986Z,6.67
2023-05-25T19:23:31.075Z,12.53
2023-05-25T19:25:58.224Z,9.03
2023-05-25T19:28:25.342Z,7.33
2023-05-25T19:30:52.822Z,14.00
2023-05-25T19:33:21.252Z,10.73
2023-05-25T19:35:48.348Z,14.67
2023-05-25T19:38:15.820Z,9.47
2023-05-25T19:40:43.067Z,14.07
2023-05-25T19:43:10.238Z,10.93
2023-05-25T19:45:37.484Z,8.90
2023-05-25T19:48:04.728Z,8.60
2023-05-25T19:50:33.371Z,8.50
2023-05-25T19:53:00.691Z,9.00
2023-05-25T19:55:27.938Z,16.17
2023-05-25T19:57:55.131Z,8.50
2023-05-25T20:00:26.777Z,11.97
2023-05-25T20:02:54.404Z,9.67
2023-05-25T20:05:21.813Z,12.67
2023-05-25T20:07:50.383Z,13.43
2023-05-25T20:10:17.535Z,14.23
2023-05-25T20:12:44.718Z,11.47
2023-05-25T20:15:11.908Z,8.17
2023-05-25T20:17:39.181Z,12.93
2023-05-25T20:20:06.917Z,9.90
2023-05-25T20:22:34.156Z,12.40
2023-05-25T20:25:02.720Z,9.30
2023-05-25T20:27:29.880Z,12.13
2023-05-25T20:29:57.127Z,8.20
2023-05-25T20:32:24.412Z,8.30
2023-05-25T20:34:51.658Z,12.70
2023-05-25T20:37:18.986Z,9.40
2023-05-25T20:39:46.078Z,9.27
2023-05-25T20:42:14.552Z,10.90
2023-05-25T20:44:41.722Z,10.10
2023-05-25T20:47:08.841Z,9.47
2023-05-25T20:49:35.981Z,10.67
2023-05-25T20:52:03.161Z,11.23
2023-05-25T20:54:30.576Z,16.40
2023-05-25T20:56:57.765Z,12.23
2023-05-25T20:59:26.197Z,14.37
2023-05-25T21:01:53.432Z,10.87
2023-05-25T21:04:20.633Z,10.70
2023-05-25T21:06:47.825Z,12.83
2023-05-25T21:09:15.052Z,8.27
2023-05-25T21:11:42.224Z,14.40
2023-05-25T21:14:09.317Z,10.07
2023-05-25T21:16:37.870Z,9.30
2023-05-25T21:19:05.138Z,11.23
2023-05-25T21:21:32.496Z,11.67
2023-05-25T21:23:59.743Z,7.17
2023-05-25T21:26:26.912Z,10.23
2023-05-25T21:28:54.043Z,11.20
2023-05-25T21:31:21.228Z,10.60
2023-05-25T21:33:49.729Z,12.20
2023-05-25T21:36:17.130Z,11.30
2023-05-25T21:38:44.286Z,12.37
2023-05-25T21:41:11.398Z,11.40
2023-05-25T21:43:38.581Z,12.00
2023-05-25T21:46:05.751Z,10.57
2023-05-25T21:48:32.883Z,16.13
2023-05-25T21:51:01.458Z,10.53
2023-05-25T21:53:28.635Z,13.30
2023-05-25T21:55:55.775Z,12.10
2023-05-25T21:58:22.983Z,17.50
2023-05-25T22:00:50.154Z,12.50
2023-05-25T22:03:17.441Z,11.57
2023-05-25T22:05:44.917Z,13.20
2023-05-25T22:08:13.484Z,16.07
2023-05-25T22:10:40.606Z,13.97
2023-05-25T22:13:07.795Z,12.93
2023-05-25T22:15:34.918Z,12.10
2023-05-25T22:18:02.230Z,14.60
2023-05-25T22:20:29.592Z,16.43
2023-05-25T22:22:56.777Z,21.00
2023-05-25T22:25:25.401Z,10.90
2023-05-25T22:27:52.516Z,15.60
2023-05-25T22:30:19.680Z,11.57
2023-05-25T22:32:46.938Z,19.03
2023-05-25T22:35:14.147Z,13.70
2023-05-25T22:37:41.263Z,15.40
2023-05-25T22:40:08.939Z,16.50
2023-05-25T22:42:37.474Z,19.10
2023-05-25T22:45:04.983Z,12.70
2023-05-25T22:47:32.111Z,13.03
2023-05-25T22:49:59.262Z,16.00
2023-05-25T22:52:26.358Z,16.03
2023-05-25T22:54:53.472Z,15.90
2023-05-25T22:57:20.559Z,14.80
2023-05-25T22:59:49.504Z,16.50
2023-05-25T23:02:16.700Z,22.73
2023-05-25T23:04:43.834Z,12.83
2023-05-25T23:07:10.985Z,12.23
2023-05-25T23:09:38.143Z,23.60
2023-05-25T23:12:05.719Z,25.13
2023-05-25T23:14:32.919Z,24.10
2023-05-25T23:17:01.430Z,21.73
2023-05-25T23:19:28.545Z,16.40
2023-05-25T23:21:56.234Z,19.93
2023-05-25T23:24:23.421Z,22.70
2023-05-25T23:26:50.562Z,18.53
2023-05-25T23:29:17.724Z,24.87
2023-05-25T23:31:44.917Z,26.07
2023-05-25T23:34:13.434Z,15.27
2023-05-25T23:36:40.626Z,20.63
2023-05-25T23:39:07.752Z,16.90
2023-05-25T23:41:34.920Z,31.57
2023-05-25T23:44:02.025Z,15.73
2023-05-25T23:46:29.212Z,23.17
2023-05-25T23:48:56.552Z,24.63
2023-05-25T23:51:25.049Z,28.80
2023-05-25T23:53:52.106Z,27.17
2023-05-25T23:56:19.188Z,25.30
2023-05-25T23:58:46.280Z,19.97
